Time;durP1;ratioP1;P1;durP2;ratioP2;P2;SDS_P1;SDS_P2;PMS_P1;PMS_P2;Temp;Humidity;BMP_temperature;BMP_pressure;BME280_temperature;BME280_humidity;BME280_pressure;Samples;Min_cycle;Max_cycle;Signal;HPM_P1;HPM_P2
2023/08/27 00:00:13;;;;;;;4.07;2.70;;;18.70;65.60;20.50;100808.00;;;;5048690;28;20191;-79
2023/08/27 00:02:40;;;;;;;2.70;2.47;;;18.70;65.70;20.50;100804.00;;;;5049335;28;20196;-80
2023/08/27 00:05:10;;;;;;;2.72;2.53;;;18.70;65.80;20.50;100806.00;;;;5034887;28;20203;-79
2023/08/27 00:07:37;;;;;;;4.70;2.90;;;18.70;65.90;20.50;100798.00;;;;5048659;28;20567;-79
2023/08/27 00:10:05;;;;;;;4.15;3.08;;;18.70;65.90;20.50;100794.00;;;;5047082;28;20296;-79
2023/08/27 00:12:31;;;;;;;5.65;3.30;;;18.70;66.00;20.50;100807.00;;;;5043619;28;20269;-79
2023/08/27 00:14:58;;;;;;;4.55;2.80;;;18.70;66.00;20.50;100804.00;;;;5047672;28;20236;-79
2023/08/27 00:17:25;;;;;;;5.50;3.00;;;18.70;66.00;20.50;100804.00;;;;5049523;28;20230;-80
2023/08/27 00:19:52;;;;;;;2.75;2.55;;;18.70;66.20;20.50;100799.00;;;;5042792;28;20797;-79
2023/08/27 00:22:21;;;;;;;2.92;2.63;;;18.70;66.20;20.50;100795.00;;;;5041269;28;21005;-79
2023/08/27 00:24:48;;;;;;;3.35;2.85;;;18.70;66.20;20.50;100793.00;;;;5040081;28;20223;-80
2023/08/27 00:27:15;;;;;;;4.43;2.58;;;18.70;66.20;20.50;100784.00;;;;5042751;28;20200;-79
2023/08/27 00:29:42;;;;;;;4.05;2.67;;;18.80;66.30;20.50;100795.00;;;;5039515;28;20203;-80
2023/08/27 00:32:09;;;;;;;2.70;2.50;;;18.80;66.40;20.50;100796.00;;;;5048467;28;20209;-80
2023/08/27 00:34:36;;;;;;;3.30;3.00;;;18.80;66.40;20.50;100793.00;;;;5047971;28;20191;-79
2023/08/27 00:37:04;;;;;;;4.13;2.58;;;18.80;66.30;20.50;100782.00;;;;5048363;28;20194;-80
2023/08/27 00:39:33;;;;;;;2.85;2.65;;;18.80;66.30;20.50;100778.00;;;;5046763;28;20245;-79
2023/08/27 00:42:00;;;;;;;3.30;3.00;;;18.80;66.30;20.50;100766.00;;;;5048394;28;20184;-79
2023/08/27 00:44:27;;;;;;;3.00;2.75;;;18.80;66.30;20.50;100768.00;;;;5034139;28;20230;-80
2023/08/27 00:46:55;;;;;;;6.50;3.08;;;18.80;66.30;20.50;100769.00;;;;5047554;28;20707;-80
2023/08/27 00:49:22;;;;;;;3.00;2.75;;;18.80;66.30;20.50;100760.00;;;;5048282;28;20222;-80
2023/08/27 00:51:50;;;;;;;3.53;3.22;;;18.80;66.40;20.50;100755.00;;;;5048683;28;20191;-79
2023/08/27 00:54:17;;;;;;;4.20;2.88;;;18.80;66.40;20.50;100748.00;;;;5047757;28;20191;-80
2023/08/27 00:56:47;;;;;;;2.78;2.47;;;18.80;66.30;20.50;100740.00;;;;5048516;28;20235;-79
2023/08/27 00:59:15;;;;;;;3.15;2.88;;;18.80;66.30;20.50;100736.00;;;;5047796;28;20245;-80
2023/08/27 01:01:42;;;;;;;3.65;2.65;;;18.80;66.30;20.50;100737.00;;;;5047487;28;20204;-80
2023/08/27 01:04:10;;;;;;;2.78;2.50;;;18.80;66.30;20.50;100730.00;;;;5036572;28;20337;-79
2023/08/27 01:06:37;;;;;;;3.42;2.90;;;18.80;66.30;20.50;100733.00;;;;5048572;28;20598;-79
2023/08/27 01:09:13;;;;;;;4.47;2.70;;;18.80;66.40;20.50;100735.00;;;;5048310;28;20200;-79
2023/08/27 01:11:57;;;;;;;2.78;2.58;;;18.80;66.50;20.40;100728.00;;;;5048267;28;20869;-80
2023/08/27 01:14:28;;;;;;;3.50;3.20;;;18.80;66.60;20.50;100718.00;;;;5047197;28;20210;-80
2023/08/27 01:16:59;;;;;;;5.65;3.30;;;18.80;66.40;20.50;100718.00;;;;5047007;28;20568;-80
2023/08/27 01:19:27;;;;;;;2.72;2.53;;;18.80;67.10;20.50;100713.00;;;;5048295;28;20203;-79
2023/08/27 01:21:56;;;;;;;4.60;2.83;;;18.80;66.40;20.50;100718.00;;;;5048231;28;20671;-80
2023/08/27 01:24:23;;;;;;;3.08;2.63;;;18.80;66.50;20.50;100711.00;;;;5047871;28;20238;-80
2023/08/27 01:27:00;;;;;;;2.42;2.22;;;18.80;66.40;20.40;100719.00;;;;5047425;28;20210;-79
2023/08/27 01:29:36;;;;;;;3.38;2.45;;;18.80;66.60;20.40;100723.00;;;;5041221;28;20195;-80
2023/08/27 01:32:14;;;;;;;3.60;2.53;;;18.80;66.50;20.40;100726.00;;;;5040447;28;20580;-80
2023/08/27 01:34:44;;;;;;;2.63;2.42;;;18.80;66.50;20.50;100721.00;;;;5043744;28;20195;-80
2023/08/27 01:37:13;;;;;;;3.35;2.50;;;18.80;66.30;20.50;100712.00;;;;5039152;28;20207;-80
2023/08/27 01:39:42;;;;;;;2.95;2.40;;;18.80;66.30;20.50;100712.00;;;;5047300;28;20196;-79
2023/08/27 01:42:09;;;;;;;2.63;2.38;;;18.80;66.30;20.50;100705.00;;;;5046470;28;20187;-79
2023/08/27 01:44:36;;;;;;;3.08;2.55;;;18.70;66.30;20.50;100692.00;;;;5050501;28;20230;-79
2023/08/27 01:47:04;;;;;;;2.88;2.25;;;18.80;66.40;20.50;100685.00;;;;5050658;28;20705;-79
2023/08/27 01:49:31;;;;;;;4.45;2.58;;;18.80;66.40;20.50;100691.00;;;;5052529;28;20238;-80
2023/08/27 01:51:58;;;;;;;3.10;2.60;;;18.70;66.30;20.50;100692.00;;;;5045379;28;20199;-79
2023/08/27 01:54:27;;;;;;;3.33;2.70;;;18.70;66.40;20.50;100686.00;;;;5050207;28;20665;-79
2023/08/27 01:56:54;;;;;;;2.80;2.50;;;18.70;66.40;20.50;100684.00;;;;5051527;28;20242;-79
2023/08/27 01:59:20;;;;;;;3.67;2.55;;;18.70;66.30;20.50;100679.00;;;;5050025;28;20690;-79
2023/08/27 02:01:47;;;;;;;4.97;2.30;;;18.70;66.20;20.50;100698.00;;;;5051656;28;20671;-80
2023/08/27 02:04:14;;;;;;;3.50;2.40;;;18.70;66.30;20.40;100697.00;;;;5050717;28;20234;-79
2023/08/27 02:06:41;;;;;;;2.78;2.13;;;18.70;66.20;20.40;100701.00;;;;5051327;28;20192;-79
2023/08/27 02:09:08;;;;;;;3.05;2.20;;;18.70;66.30;20.40;100701.00;;;;5049374;28;20570;-80
2023/08/27 02:11:36;;;;;;;3.38;2.65;;;18.60;66.20;20.40;100697.00;;;;5050301;28;20196;-80
2023/08/27 02:14:04;;;;;;;2.75;2.00;;;18.70;66.30;20.40;100702.00;;;;5050896;28;20666;-79
2023/08/27 02:16:34;;;;;;;3.78;2.35;;;18.70;66.30;20.40;100702.00;;;;5050474;28;20231;-79
2023/08/27 02:19:01;;;;;;;3.38;2.40;;;18.60;66.30;20.40;100705.00;;;;5051387;28;20702;-79
2023/08/27 02:21:28;;;;;;;3.10;2.45;;;18.60;66.30;20.40;100699.00;;;;5046815;28;20211;-79
2023/08/27 02:23:55;;;;;;;4.15;2.40;;;18.60;66.30;20.40;100698.00;;;;5051895;28;20228;-79
2023/08/27 02:26:22;;;;;;;2.17;1.98;;;18.60;66.40;20.40;100701.00;;;;5041861;28;20663;-80
2023/08/27 02:28:50;;;;;;;3.50;1.95;;;18.60;66.50;20.40;100699.00;;;;5048091;28;20631;-79
2023/08/27 02:31:17;;;;;;;3.35;2.20;;;18.60;66.50;20.40;100713.00;;;;5050480;28;20597;-80
2023/08/27 02:33:45;;;;;;;2.05;1.85;;;18.60;66.60;20.40;100709.00;;;;5049474;28;20571;-79
2023/08/27 02:36:12;;;;;;;3.30;2.20;;;18.60;66.60;20.40;100703.00;;;;5044702;28;20204;-80
2023/08/27 02:38:39;;;;;;;3.22;1.98;;;18.60;66.60;20.40;100702.00;;;;5041849;28;20589;-79
2023/08/27 02:41:06;;;;;;;2.38;1.90;;;18.60;66.70;20.40;100709.00;;;;5044983;28;20701;-79
2023/08/27 02:43:33;;;;;;;2.10;1.90;;;18.60;66.70;20.40;100716.00;;;;5050044;28;20200;-79
2023/08/27 02:46:02;;;;;;;2.25;2.05;;;18.70;66.70;20.40;100714.00;;;;5041007;28;20200;-79
2023/08/27 02:48:28;;;;;;;3.15;1.83;;;18.70;66.80;20.40;100721.00;;;;5044645;28;20195;-79
2023/08/27 02:50:55;;;;;;;2.63;2.25;;;18.70;66.80;20.40;100723.00;;;;5050783;28;20202;-79
2023/08/27 02:53:22;;;;;;;3.22;1.92;;;18.70;66.80;20.40;100719.00;;;;5035826;28;20600;-79
2023/08/27 02:55:49;;;;;;;2.35;1.80;;;18.70;66.90;20.40;100714.00;;;;5049656;28;20586;-80
2023/08/27 02:58:16;;;;;;;2.17;1.98;;;18.70;66.90;20.50;100710.00;;;;5047547;28;20223;-79
2023/08/27 03:00:42;;;;;;;2.13;1.95;;;18.70;66.90;20.50;100712.00;;;;5038030;28;20196;-80
2023/08/27 03:03:11;;;;;;;2.80;2.03;;;18.70;67.00;20.50;100719.00;;;;5048863;28;20204;-80
2023/08/27 03:05:39;;;;;;;2.30;1.88;;;18.70;67.00;20.50;100722.00;;;;5049687;28;20223;-80
2023/08/27 03:08:06;;;;;;;2.78;1.83;;;18.70;67.00;20.50;100720.00;;;;5049262;28;20207;-80
2023/08/27 03:10:33;;;;;;;2.80;1.60;;;18.70;66.90;20.50;100718.00;;;;5049194;28;20199;-80
2023/08/27 03:13:00;;;;;;;1.85;1.65;;;18.80;67.00;20.50;100731.00;;;;5045731;28;20208;-80
2023/08/27 03:15:27;;;;;;;3.63;1.88;;;18.70;67.00;20.50;100732.00;;;;5046203;28;20585;-79
2023/08/27 03:17:54;;;;;;;2.20;1.80;;;18.80;67.00;20.50;100734.00;;;;5049466;28;20196;-79
2023/08/27 03:20:23;;;;;;;1.88;1.65;;;18.80;67.10;20.50;100736.00;;;;5041363;28;20200;-80
2023/08/27 03:22:50;;;;;;;1.63;1.52;;;18.80;67.00;20.50;100736.00;;;;5049044;28;20206;-80
2023/08/27 03:25:17;;;;;;;2.53;1.73;;;18.80;66.90;20.50;100724.00;;;;5049114;28;20245;-80
2023/08/27 03:27:44;;;;;;;1.55;1.45;;;18.80;66.90;20.50;100726.00;;;;5048977;28;20206;-80
2023/08/27 03:30:12;;;;;;;2.08;1.77;;;18.80;66.90;20.50;100733.00;;;;5045737;28;20203;-80
2023/08/27 03:32:39;;;;;;;2.63;1.88;;;18.80;66.90;20.50;100732.00;;;;5044995;28;20208;-79
2023/08/27 03:35:07;;;;;;;1.92;1.70;;;18.80;66.90;20.50;100721.00;;;;5043169;28;20208;-80
2023/08/27 03:37:35;;;;;;;2.10;1.80;;;18.80;67.00;20.50;100718.00;;;;5048791;28;20231;-80
2023/08/27 03:40:03;;;;;;;3.65;2.20;;;18.80;67.10;20.50;100712.00;;;;5047010;28;20192;-80
2023/08/27 03:42:29;;;;;;;3.33;2.08;;;18.80;67.10;20.50;100708.00;;;;5048925;28;20725;-80
2023/08/27 03:44:59;;;;;;;3.30;2.03;;;18.80;67.10;20.50;100707.00;;;;5049673;28;20224;-79
2023/08/27 03:47:27;;;;;;;3.55;2.20;;;18.80;67.10;20.50;100703.00;;;;5047133;28;20206;-79
2023/08/27 03:49:54;;;;;;;4.20;2.10;;;18.80;67.20;20.50;100702.00;;;;5043126;28;20210;-80
2023/08/27 03:52:21;;;;;;;3.95;2.80;;;18.80;67.20;20.60;100703.00;;;;5045494;28;20207;-79
2023/08/27 03:54:50;;;;;;;2.92;2.60;;;18.80;67.30;20.60;100699.00;;;;5047180;28;20639;-80
2023/08/27 03:57:17;;;;;;;2.20;2.00;;;18.90;67.40;20.60;100694.00;;;;5048633;28;20913;-79
2023/08/27 03:59:44;;;;;;;3.17;2.10;;;18.90;67.30;20.60;100699.00;;;;5048966;28;20576;-79
2023/08/27 04:02:10;;;;;;;2.17;1.98;;;18.90;67.40;20.60;100694.00;;;;5048550;28;20200;-79
2023/08/27 04:04:38;;;;;;;2.83;1.90;;;18.90;67.40;20.60;100692.00;;;;5048794;28;20273;-80
2023/08/27 04:07:05;;;;;;;3.00;2.28;;;18.90;67.50;20.60;100687.00;;;;5046760;28;20207;-79
2023/08/27 04:09:33;;;;;;;2.47;2.22;;;18.90;67.50;20.60;100697.00;;;;5046678;28;20674;-79
2023/08/27 04:12:02;;;;;;;4.00;2.35;;;18.90;67.50;20.70;100700.00;;;;5049107;28;20199;-79
2023/08/27 04:14:29;;;;;;;2.97;2.55;;;18.90;67.50;20.70;100694.00;;;;5047892;28;20203;-79
2023/08/27 04:16:56;;;;;;;12.50;3.50;;;18.90;67.50;20.70;100691.00;;;;5048621;28;20227;-80
2023/08/27 04:19:23;;;;;;;2.70;2.38;;;19.00;67.60;20.70;100695.00;;;;5048674;28;20212;-79
2023/08/27 04:21:50;;;;;;;2.50;2.30;;;19.00;67.50;20.70;100702.00;;;;5047857;28;20667;-80
2023/08/27 04:24:17;;;;;;;3.75;2.85;;;19.00;67.50;20.70;100701.00;;;;5048484;28;20223;-79
2023/08/27 04:26:44;;;;;;;2.70;2.30;;;19.00;67.50;20.70;100705.00;;;;5047374;28;20679;-79
2023/08/27 04:29:12;;;;;;;2.90;2.25;;;19.00;67.60;20.70;100706.00;;;;5048094;28;20199;-80
2023/08/27 04:31:39;;;;;;;3.25;2.30;;;19.00;67.60;20.70;100703.00;;;;5048014;28;20245;-79
2023/08/27 04:34:06;;;;;;;3.22;2.45;;;19.00;67.60;20.80;100703.00;;;;5047400;28;20207;-79
2023/08/27 04:36:33;;;;;;;2.40;2.13;;;19.00;67.50;20.80;100707.00;;;;5049301;28;20553;-79
2023/08/27 04:39:00;;;;;;;2.30;2.10;;;19.00;67.60;20.80;100699.00;;;;5048113;28;21331;-80
2023/08/27 04:41:27;;;;;;;2.20;2.00;;;19.00;67.60;20.80;100692.00;;;;5044077;28;20207;-81
2023/08/27 04:43:54;;;;;;;3.50;2.58;;;19.00;67.60;20.80;100700.00;;;;5041153;28;20667;-81
2023/08/27 04:46:23;;;;;;;3.45;2.25;;;19.10;67.70;20.80;100702.00;;;;5041717;28;20211;-79
2023/08/27 04:48:50;;;;;;;4.13;2.40;;;19.10;67.60;20.80;100700.00;;;;5041991;28;20191;-80
2023/08/27 04:51:17;;;;;;;2.67;2.00;;;19.10;67.60;20.80;100693.00;;;;5047223;28;20191;-80
2023/08/27 04:53:44;;;;;;;2.80;2.22;;;19.10;67.60;20.80;100697.00;;;;5048750;28;20199;-80
2023/08/27 04:56:11;;;;;;;2.53;2.15;;;19.10;67.60;20.80;100688.00;;;;5047068;28;20200;-80
2023/08/27 04:58:38;;;;;;;3.33;2.17;;;19.10;67.50;20.80;100695.00;;;;5047767;28;20200;-80
2023/08/27 05:01:05;;;;;;;5.20;2.88;;;19.10;67.60;20.80;100691.00;;;;5046106;28;20302;-79
2023/08/27 05:03:33;;;;;;;2.20;1.75;;;19.10;67.50;20.80;100693.00;;;;5047291;28;20283;-80
2023/08/27 05:06:00;;;;;;;3.38;2.00;;;19.10;67.50;20.80;100689.00;;;;5046284;28;20238;-79
2023/08/27 05:08:27;;;;;;;2.80;1.88;;;19.10;67.40;20.80;100689.00;;;;5047962;28;20718;-79
2023/08/27 05:10:54;;;;;;;2.03;1.80;;;19.10;67.30;20.80;100691.00;;;;5047029;28;20301;-80
2023/08/27 05:13:21;;;;;;;2.20;1.77;;;19.10;67.30;20.80;100690.00;;;;5047659;28;20206;-80
2023/08/27 05:15:48;;;;;;;2.50;1.85;;;19.10;67.20;20.80;100691.00;;;;5040426;28;20238;-80
2023/08/27 05:18:15;;;;;;;3.38;1.80;;;19.10;67.20;20.80;100696.00;;;;5040096;28;20860;-80
2023/08/27 05:20:46;;;;;;;1.90;1.60;;;19.10;68.00;20.80;100699.00;;;;5047399;28;20195;-80
2023/08/27 05:23:13;;;;;;;1.63;1.48;;;19.10;67.30;20.80;100692.00;;;;5046690;28;20227;-80
2023/08/27 05:25:40;;;;;;;2.03;1.83;;;19.10;67.20;20.80;100693.00;;;;5047274;28;20601;-80
2023/08/27 05:28:07;;;;;;;2.00;1.88;;;19.10;67.20;20.80;100695.00;;;;5047365;28;20210;-80
2023/08/27 05:30:34;;;;;;;1.40;1.15;;;19.10;67.20;20.80;100692.00;;;;5046369;28;20196;-80
2023/08/27 05:33:01;;;;;;;2.10;1.60;;;19.00;67.20;20.80;100691.00;;;;5038863;28;20668;-80
2023/08/27 05:35:28;;;;;;;2.17;1.73;;;19.00;67.20;20.80;100685.00;;;;5038123;28;20207;-79
2023/08/27 05:37:57;;;;;;;3.92;1.75;;;19.00;67.20;20.80;100691.00;;;;5047668;28;20576;-80
2023/08/27 05:40:24;;;;;;;2.33;1.65;;;19.00;67.20;20.80;100687.00;;;;5045906;28;20199;-80
2023/08/27 05:42:51;;;;;;;1.42;1.33;;;19.00;67.20;20.80;100693.00;;;;5047128;28;20196;-80
2023/08/27 05:45:18;;;;;;;2.40;1.30;;;19.00;67.30;20.80;100686.00;;;;5046647;28;20222;-79
2023/08/27 05:47:45;;;;;;;2.35;1.67;;;19.00;67.30;20.80;100696.00;;;;5047754;28;20192;-79
2023/08/27 05:50:12;;;;;;;1.90;1.30;;;19.00;67.30;20.80;100683.00;;;;5042903;28;20653;-79
2023/08/27 05:52:38;;;;;;;1.83;1.45;;;19.00;67.30;20.80;100687.00;;;;5044589;28;20199;-79
2023/08/27 05:55:08;;;;;;;3.33;1.55;;;19.10;67.50;20.80;100687.00;;;;5046839;28;20664;-80
2023/08/27 05:57:35;;;;;;;3.55;1.90;;;19.10;67.60;20.90;100693.00;;;;5047853;28;20208;-79
2023/08/27 06:00:02;;;;;;;5.50;1.50;;;19.10;67.50;20.90;100694.00;;;;5046150;28;20772;-80
2023/08/27 06:02:29;;;;;;;2.10;1.50;;;19.10;67.60;20.90;100693.00;;;;5041805;28;20196;-83
2023/08/27 06:04:56;;;;;;;2.28;1.40;;;19.10;67.50;20.90;100694.00;;;;5045734;28;20235;-82
2023/08/27 06:07:23;;;;;;;4.10;1.52;;;19.20;67.60;20.90;100690.00;;;;5043111;28;20204;-83
2023/08/27 06:09:50;;;;;;;3.28;1.50;;;19.20;67.70;20.90;100692.00;;;;5041269;28;20211;-83
2023/08/27 06:12:19;;;;;;;3.03;1.30;;;19.20;67.60;20.90;100683.00;;;;5035843;28;20560;-82
2023/08/27 06:14:46;;;;;;;2.25;1.50;;;19.20;67.60;21.00;100685.00;;;;5038693;28;20862;-81
2023/08/27 06:17:13;;;;;;;2.15;1.35;;;19.20;67.60;21.00;100685.00;;;;5046632;28;20227;-81
2023/08/27 06:19:40;;;;;;;3.95;1.70;;;19.20;67.50;21.00;100679.00;;;;5045371;28;20203;-79
2023/08/27 06:22:06;;;;;;;1.45;1.30;;;19.30;67.70;21.00;100688.00;;;;5044713;28;20199;-79
2023/08/27 06:24:34;;;;;;;1.73;1.40;;;19.30;67.80;21.00;100677.00;;;;5046925;28;20203;-79
2023/08/27 06:27:01;;;;;;;3.72;1.83;;;19.30;67.80;21.00;100680.00;;;;5045765;28;20188;-79
2023/08/27 06:29:29;;;;;;;2.20;1.50;;;19.30;67.80;21.00;100671.00;;;;5047369;28;20195;-81
2023/08/27 06:31:56;;;;;;;3.75;1.20;;;19.30;67.70;21.10;100661.00;;;;5050922;28;20694;-81
2023/08/27 06:34:23;;;;;;;2.75;1.50;;;19.40;67.80;21.10;100664.00;;;;5050610;28;20207;-81
2023/08/27 06:36:51;;;;;;;1.85;1.67;;;19.40;67.80;21.20;100659.00;;;;5051429;28;20208;-81
2023/08/27 06:39:22;;;;;;;3.10;1.70;;;19.40;68.00;21.20;100654.00;;;;5048522;28;20195;-80
2023/08/27 06:41:49;;;;;;;1.73;1.52;;;19.40;68.20;21.20;100657.00;;;;5050036;28;20579;-80
2023/08/27 06:44:16;;;;;;;2.42;1.92;;;19.50;68.20;21.30;100657.00;;;;5048935;28;20713;-80
2023/08/27 06:46:44;;;;;;;1.85;1.27;;;19.50;68.10;21.30;100653.00;;;;5049644;28;20314;-80
2023/08/27 06:49:11;;;;;;;3.63;2.03;;;19.60;68.20;21.30;100658.00;;;;5049164;28;20203;-80
2023/08/27 06:51:38;;;;;;;3.58;1.77;;;19.60;68.10;21.40;100655.00;;;;5031534;28;20200;-80
2023/08/27 06:54:05;;;;;;;2.30;1.75;;;19.60;68.60;21.40;100654.00;;;;5030440;28;20204;-80
2023/08/27 06:56:33;;;;;;;2.47;2.05;;;19.70;68.50;21.50;100648.00;;;;5037262;28;20216;-80
2023/08/27 06:59:06;;;;;;;3.47;2.30;;;19.70;68.50;21.50;100649.00;;;;5041317;28;21141;-80
2023/08/27 07:01:33;;;;;;;3.55;2.47;;;19.80;68.60;21.60;100663.00;;;;5051174;28;20210;-80
2023/08/27 07:04:03;;;;;;;3.70;2.40;;;19.80;68.40;21.60;100659.00;;;;5050323;28;20286;-80
2023/08/27 07:06:31;;;;;;;3.72;2.45;;;19.90;68.40;21.60;100663.00;;;;5029977;28;20246;-80
2023/08/27 07:08:58;;;;;;;4.15;2.05;;;19.90;68.50;21.70;100663.00;;;;5050084;28;20200;-81
2023/08/27 07:11:25;;;;;;;4.72;2.30;;;20.00;68.70;21.80;100666.00;;;;5050108;28;20589;-81
2023/08/27 07:13:52;;;;;;;3.13;2.30;;;20.00;68.70;21.80;100673.00;;;;5049720;28;20747;-83
2023/08/27 07:16:20;;;;;;;5.82;3.10;;;20.00;68.60;21.80;100672.00;;;;5046153;28;20354;-81
2023/08/27 07:18:47;;;;;;;2.28;2.03;;;20.10;68.50;21.90;100672.00;;;;5048930;28;20223;-81
2023/08/27 07:21:16;;;;;;;5.90;2.88;;;20.20;68.50;21.90;100673.00;;;;5049120;28;20224;-83
2023/08/27 07:23:43;;;;;;;5.28;3.55;;;20.20;68.30;21.90;100673.00;;;;5046945;28;20577;-81
2023/08/27 07:26:11;;;;;;;4.32;3.80;;;20.20;68.20;21.90;100672.00;;;;5031085;28;20703;-81
2023/08/27 07:28:38;;;;;;;4.53;3.90;;;20.20;68.10;22.00;100668.00;;;;5047780;28;20237;-80
2023/08/27 07:31:05;;;;;;;4.78;4.15;;;20.30;68.00;22.00;100666.00;;;;5049401;28;20274;-81
2023/08/27 07:33:34;;;;;;;4.65;4.10;;;20.30;67.90;22.00;100671.00;;;;5048415;28;20203;-79
2023/08/27 07:36:01;;;;;;;6.88;4.72;;;20.30;67.80;22.00;100672.00;;;;5049928;28;20199;-81
2023/08/27 07:38:30;;;;;;;5.07;4.60;;;20.30;67.80;22.00;100672.00;;;;5045402;28;20203;-81
2023/08/27 07:40:57;;;;;;;5.32;4.82;;;20.30;67.80;22.10;100676.00;;;;5048749;28;20206;-80
2023/08/27 07:43:24;;;;;;;5.15;4.45;;;20.40;67.90;22.10;100676.00;;;;5043958;28;20284;-80
2023/08/27 07:45:50;;;;;;;6.13;5.53;;;20.40;68.10;22.10;100668.00;;;;5048406;28;20754;-81
2023/08/27 07:48:17;;;;;;;6.05;5.43;;;20.50;68.00;22.10;100670.00;;;;5045368;28;20202;-80
2023/08/27 07:50:45;;;;;;;4.85;4.45;;;20.50;67.80;22.20;100668.00;;;;5041496;28;20195;-80
2023/08/27 07:53:13;;;;;;;5.38;4.68;;;20.50;67.90;22.20;100662.00;;;;5048457;28;20200;-82
2023/08/27 07:55:41;;;;;;;5.80;5.18;;;20.50;67.80;22.20;100664.00;;;;5048775;28;20200;-78
2023/08/27 07:58:08;;;;;;;6.55;5.47;;;20.60;67.70;22.30;100668.00;;;;5032892;28;20580;-79
2023/08/27 08:00:35;;;;;;;5.78;5.18;;;20.60;67.70;22.30;100672.00;;;;5029403;28;20197;-78
2023/08/27 08:03:02;;;;;;;6.72;6.03;;;20.60;67.70;22.30;100667.00;;;;5031689;28;20202;-78
2023/08/27 08:05:29;;;;;;;6.45;5.88;;;20.70;67.70;22.40;100666.00;;;;5040490;28;20223;-78
2023/08/27 08:07:56;;;;;;;5.30;4.82;;;20.70;67.60;22.40;100666.00;;;;5041901;28;20188;-78
2023/08/27 08:10:24;;;;;;;6.28;5.75;;;20.80;67.50;22.40;100662.00;;;;5029192;28;20203;-79
2023/08/27 08:12:53;;;;;;;6.90;5.03;;;20.80;67.40;22.40;100664.00;;;;5045320;28;20650;-81
2023/08/27 08:15:20;;;;;;;8.38;5.38;;;20.80;67.10;22.40;100662.00;;;;5048654;28;20231;-81
2023/08/27 08:17:47;;;;;;;5.82;5.32;;;20.80;67.10;22.40;100663.00;;;;5047547;28;20192;-81
2023/08/27 08:20:14;;;;;;;5.35;4.85;;;20.80;67.10;22.40;100661.00;;;;5047300;28;20195;-81
2023/08/27 08:22:42;;;;;;;6.72;6.03;;;20.80;67.10;22.50;100660.00;;;;5046873;28;20215;-82
2023/08/27 08:25:09;;;;;;;7.68;5.80;;;20.90;67.30;22.50;100659.00;;;;5046738;28;20188;-82
2023/08/27 08:27:36;;;;;;;8.75;6.70;;;20.90;67.30;22.60;100662.00;;;;5048495;28;20206;-81
2023/08/27 08:30:07;;;;;;;7.07;5.80;;;20.90;67.30;22.60;100655.00;;;;5029539;28;20207;-82
2023/08/27 08:32:34;;;;;;;8.20;6.32;;;21.00;67.30;22.70;100657.00;;;;5029233;28;20672;-83
2023/08/27 08:35:02;;;;;;;6.80;6.15;;;21.00;67.20;22.70;100653.00;;;;5045787;28;20225;-81
2023/08/27 08:37:29;;;;;;;6.30;5.72;;;21.10;67.10;22.70;100647.00;;;;5046863;28;20203;-81
2023/08/27 08:39:56;;;;;;;6.78;6.00;;;21.10;66.80;22.70;100638.00;;;;5046053;28;20211;-82
2023/08/27 08:42:33;;;;;;;7.03;6.43;;;21.10;66.60;22.60;100637.00;;;;5041425;28;20200;-81
2023/08/27 08:45:11;;;;;;;6.68;5.97;;;21.10;66.30;22.70;100640.00;;;;5043232;28;20215;-81
2023/08/27 08:47:38;;;;;;;6.57;5.72;;;21.20;66.60;22.90;100647.00;;;;5037906;28;20208;-82
2023/08/27 08:50:08;;;;;;;6.00;5.50;;;21.20;66.80;22.90;100647.00;;;;5039744;28;20188;-81
2023/08/27 08:52:39;;;;;;;5.93;5.43;;;21.20;67.00;23.00;100651.00;;;;5039310;28;20191;-80
2023/08/27 08:55:09;;;;;;;6.20;5.43;;;21.30;66.70;23.10;100647.00;;;;5040116;28;20246;-83
2023/08/27 08:57:48;;;;;;;6.35;5.80;;;21.40;66.50;23.20;100652.00;;;;5038828;28;20270;-81
2023/08/27 09:00:20;;;;;;;6.57;5.97;;;21.50;66.60;23.30;100654.00;;;;5040803;28;20394;-81
2023/08/27 09:02:48;;;;;;;6.68;5.97;;;21.60;66.50;23.40;100657.00;;;;5039273;28;20199;-82
2023/08/27 09:05:18;;;;;;;5.50;5.00;;;21.70;66.30;23.40;100657.00;;;;5037006;28;20227;-81
2023/08/27 09:07:48;;;;;;;5.55;5.00;;;21.80;66.20;23.40;100656.00;;;;5037258;28;20200;-81
2023/08/27 09:10:15;;;;;;;6.90;4.97;;;21.80;65.80;23.50;100674.00;;;;5045377;28;20195;-82
2023/08/27 09:12:42;;;;;;;5.30;4.90;;;21.80;65.70;23.50;100677.00;;;;5046534;28;20660;-82
2023/08/27 09:15:10;;;;;;;5.40;4.57;;;21.90;65.50;23.40;100683.00;;;;5046091;28;20204;-81
2023/08/27 09:17:39;;;;;;;5.07;4.03;;;21.90;65.10;23.40;100684.00;;;;5048853;28;20207;-82
2023/08/27 09:20:09;;;;;;;2.72;2.53;;;21.90;64.70;23.30;100677.00;;;;5047983;28;20283;-83
2023/08/27 09:22:37;;;;;;;2.15;1.90;;;21.80;63.90;23.20;100676.00;;;;5045742;28;20638;-82
2023/08/27 09:25:06;;;;;;;3.88;1.95;;;21.80;63.50;23.10;100662.00;;;;5042686;28;20287;-82
2023/08/27 09:27:34;;;;;;;3.92;2.05;;;21.70;63.10;22.90;100670.00;;;;5038814;28;20219;-82
2023/08/27 09:30:01;;;;;;;2.00;1.80;;;21.60;62.90;22.80;100670.00;;;;5044775;28;20206;-82
2023/08/27 09:32:30;;;;;;;1.67;1.58;;;21.40;62.80;22.70;100661.00;;;;5044458;28;20203;-80
2023/08/27 09:35:02;;;;;;;1.73;1.48;;;21.30;62.50;22.50;100657.00;;;;5044265;28;20294;-81
2023/08/27 09:37:40;;;;;;;1.80;1.35;;;21.20;62.50;22.40;100648.00;;;;5043029;28;20970;-82
2023/08/27 09:40:09;;;;;;;1.58;1.48;;;21.00;62.50;22.40;100648.00;;;;5040442;28;20192;-81
2023/08/27 09:42:36;;;;;;;1.40;1.30;;;20.90;62.70;22.30;100649.00;;;;5042176;28;20566;-81
2023/08/27 09:45:04;;;;;;;2.15;1.48;;;20.80;62.80;22.30;100649.00;;;;5027340;28;20208;-81
2023/08/27 09:47:32;;;;;;;1.40;1.30;;;20.70;63.00;22.20;100657.00;;;;5039651;28;20234;-82
2023/08/27 09:50:04;;;;;;;1.70;1.45;;;20.60;63.30;22.10;100659.00;;;;5046580;28;20203;-82
2023/08/27 09:52:31;;;;;;;1.13;1.02;;;20.50;63.50;22.10;100648.00;;;;5045650;28;20219;-82
2023/08/27 09:54:59;;;;;;;2.38;1.33;;;20.40;63.50;22.10;100646.00;;;;5046982;28;20223;-82
2023/08/27 09:57:25;;;;;;;1.42;1.33;;;20.40;63.70;22.10;100637.00;;;;5047723;28;20228;-81
2023/08/27 09:59:53;;;;;;;1.45;1.15;;;20.40;64.20;22.00;100637.00;;;;5041692;28;20507;-81
2023/08/27 10:02:20;;;;;;;1.20;1.10;;;20.30;64.40;22.10;100643.00;;;;5039529;28;21506;-80
2023/08/27 10:04:56;;;;;;;1.90;1.30;;;20.20;64.50;22.00;100647.00;;;;5048434;28;20752;-79
2023/08/27 10:07:24;;;;;;;1.80;1.10;;;20.30;64.60;22.00;100649.00;;;;5041978;28;20238;-81
2023/08/27 10:09:53;;;;;;;1.40;0.90;;;20.30;64.70;22.10;100652.00;;;;5048582;28;20206;-80
2023/08/27 10:12:22;;;;;;;1.38;1.20;;;20.30;64.90;22.10;100645.00;;;;5047359;28;20215;-82
2023/08/27 10:14:49;;;;;;;3.22;0.98;;;20.30;65.00;22.10;100640.00;;;;5040807;28;20211;-81
2023/08/27 10:17:17;;;;;;;0.98;0.80;;;20.30;65.20;22.10;100648.00;;;;5032718;28;20232;-82
2023/08/27 10:19:44;;;;;;;0.70;0.68;;;20.40;65.40;22.20;100648.00;;;;5049052;28;20211;-82
2023/08/27 10:22:11;;;;;;;0.70;0.70;;;20.40;65.60;22.20;100653.00;;;;5049393;28;20208;-82
2023/08/27 10:24:41;;;;;;;0.95;0.70;;;20.50;65.40;22.20;100641.00;;;;5038137;28;20690;-82
2023/08/27 10:27:09;;;;;;;0.60;0.57;;;20.50;65.20;22.30;100647.00;;;;5048651;28;20215;-81
2023/08/27 10:29:37;;;;;;;1.20;0.73;;;20.60;65.00;22.30;100644.00;;;;5050088;28;20188;-82
2023/08/27 10:32:07;;;;;;;0.90;0.80;;;20.60;65.00;22.30;100648.00;;;;5050020;28;20693;-81
2023/08/27 10:34:35;;;;;;;1.50;0.82;;;20.60;65.00;22.30;100655.00;;;;5050342;28;20192;-81
2023/08/27 10:37:09;;;;;;;0.90;0.80;;;20.60;65.00;22.30;100667.00;;;;5043633;28;20257;-81
2023/08/27 10:39:39;;;;;;;3.50;0.77;;;20.60;64.90;22.30;100663.00;;;;5045484;28;20313;-81
2023/08/27 10:42:06;;;;;;;0.60;0.60;;;20.70;64.60;22.30;100677.00;;;;5039110;28;20682;-81
2023/08/27 10:44:33;;;;;;;1.45;0.70;;;20.60;64.60;22.30;100671.00;;;;5039101;28;20203;-81
2023/08/27 10:47:13;;;;;;;1.10;0.95;;;20.60;64.50;22.10;100672.00;;;;5049878;28;20640;-82
2023/08/27 10:49:45;;;;;;;1.77;0.68;;;20.60;64.20;22.20;100676.00;;;;5050672;28;20203;-82